.
WxDataArchive / Data Records for 2012-03-14
2012-03-13 March 2012 2012-03-15

Data Records for Wednesday, 14 March 2012

Time	Temp	Chill	HIndex	Humid	Dewpt	 Wind 	HiWind	WindDir	Rain 	Barom 
-----	----	-----	------	-----	-----	------	------	-------	-----	----- 
00:00	43.3	43.3	43.3	64	32.0	0	0	---	0.00	30.116 
00:05	43.2	43.2	43.2	64	31.9	0	0	---	0.00	30.116 
00:10	43.1	43.1	43.1	64	31.8	0	0	---	0.00	30.116 
00:15	43.1	43.1	43.1	65	32.1	0	0	---	0.00	30.114 
00:20	42.9	42.9	42.9	65	32.0	0	0	---	0.00	30.114 
00:25	42.8	42.8	42.8	65	31.9	0	0	---	0.00	30.114 
00:30	42.6	42.6	42.6	66	32.0	0	0	---	0.00	30.111 
00:35	42.3	42.3	42.3	67	32.1	0	0	---	0.00	30.111 
00:40	42.3	42.3	42.3	67	32.1	0	0	---	0.00	30.111 
00:45	42.2	42.2	42.2	68	32.4	0	0	---	0.00	30.109 
00:50	42.2	42.2	42.2	68	32.4	0	0	---	0.00	30.109 
00:55	42.1	42.1	42.1	68	32.3	0	0	---	0.00	30.109 
01:00	41.9	41.9	41.9	67	31.8	0	0	---	0.00	30.105 
01:05	41.6	41.6	41.6	67	31.5	0	0	---	0.00	30.105 
01:10	41.5	41.5	41.5	68	31.7	0	0	---	0.00	30.105 
01:15	41.3	41.3	41.3	69	31.9	0	0	---	0.00	30.100 
01:20	41.2	41.2	41.2	69	31.8	0	0	---	0.00	30.100 
01:25	41.1	41.1	41.1	69	31.7	0	0	---	0.00	30.100 
01:30	40.9	40.9	40.9	70	31.9	0	0	---	0.00	30.099 
01:35	40.8	40.8	40.8	70	31.8	0	0	---	0.00	30.099 
01:40	40.8	40.8	40.8	70	31.8	0	0	---	0.00	30.099 
01:45	40.6	40.6	40.6	71	31.9	0	0	---	0.00	30.096 
01:50	40.6	40.6	40.6	71	31.9	0	0	---	0.00	30.096 
01:55	40.6	40.6	40.6	71	31.9	0	0	---	0.00	30.096 
02:00	40.6	40.6	40.6	72	32.3	0	0	---	0.00	30.095 
02:05	40.6	40.6	40.6	72	32.3	0	0	---	0.00	30.095 
02:10	40.6	40.6	40.6	73	32.6	0	0	---	0.00	30.095 
02:15	40.6	40.6	40.6	73	32.6	0	0	---	0.00	30.093 
02:20	40.6	40.6	40.6	74	33.0	0	0	---	0.00	30.093 
02:25	40.6	40.6	40.6	75	33.3	0	0	---	0.00	30.093 
02:30	40.8	40.8	40.8	76	33.8	0	0	---	0.00	30.093 
02:35	40.9	40.9	40.9	78	34.6	0	0	---	0.00	30.093 
02:40	41.1	41.1	41.1	79	35.1	0	0	---	0.00	30.093 
02:45	40.9	40.9	40.9	79	34.9	0	0	---	0.00	30.093 
02:50	40.8	40.8	40.8	79	34.8	0	0	---	0.00	30.093 
02:55	40.6	40.6	40.6	80	34.9	0	0	---	0.00	30.093 
03:00	40.5	40.5	40.5	81	35.1	0	0	---	0.00	30.093 
03:05	40.5	40.5	40.5	81	35.1	0	0	---	0.00	30.093 
03:10	40.5	40.5	40.5	81	35.1	0	0	---	0.00	30.093 
03:15	40.3	40.3	40.3	81	34.9	0	0	---	0.00	30.094 
03:20	40.2	40.2	40.2	81	34.8	0	0	---	0.00	30.094 
03:25	40.2	40.2	40.2	82	35.2	0	0	---	0.00	30.094 
03:30	40.1	40.1	40.1	81	34.7	0	0	---	0.00	30.092 
03:35	39.9	39.9	39.9	81	34.6	0	0	---	0.00	30.092 
03:40	39.9	39.9	39.9	81	34.6	0	0	---	0.00	30.092 
03:45	39.8	39.8	39.8	81	34.5	0	0	---	0.00	30.092 
03:50	39.6	39.6	39.6	81	34.3	0	0	---	0.00	30.092 
03:55	39.6	39.6	39.6	81	34.3	0	0	---	0.00	30.092 
04:00	39.6	39.6	39.6	81	34.3	0	0	---	0.00	30.089 
04:05	39.6	39.6	39.6	81	34.3	0	0	---	0.00	30.089 
04:10	39.6	39.6	39.6	80	33.9	0	0	---	0.00	30.089 
04:15	39.5	39.5	39.5	80	33.9	0	0	---	0.00	30.085 
04:20	39.5	39.5	39.5	80	33.9	0	0	---	0.00	30.085 
04:25	39.6	39.6	39.6	80	33.9	0	0	---	0.00	30.085 
04:30	39.8	39.8	39.8	81	34.5	0	0	---	0.00	30.080 
04:35	40.1	40.1	40.1	81	34.7	0	0	---	0.00	30.080 
04:40	40.3	40.3	40.3	82	35.2	0	0	---	0.00	30.080 
04:45	40.5	40.5	40.5	82	35.4	0	0	---	0.00	30.079 
04:50	40.6	40.6	40.6	83	35.8	0	0	---	0.00	30.079 
04:55	40.6	40.6	40.6	83	35.8	0	0	---	0.00	30.079 
05:00	40.6	40.6	40.6	83	35.8	0	0	---	0.00	30.081 
05:05	40.6	40.6	40.6	83	35.8	0	0	---	0.00	30.081 
05:10	40.6	40.6	40.6	83	35.8	0	0	---	0.00	30.081 
05:15	40.5	40.5	40.5	84	36.1	0	0	---	0.00	30.085 
05:20	40.5	40.5	40.5	84	36.1	0	0	---	0.00	30.085 
05:25	40.5	40.5	40.5	84	36.1	0	0	---	0.00	30.085 
05:30	40.3	40.3	40.3	84	35.9	0	0	---	0.00	30.085 
05:35	40.3	40.3	40.3	84	35.9	0	0	---	0.00	30.085 
05:40	40.3	40.3	40.3	84	35.9	0	0	---	0.00	30.085 
05:45	40.2	40.2	40.2	84	35.8	0	0	---	0.00	30.087 
05:50	40.2	40.2	40.2	85	36.1	0	0	---	0.00	30.087 
05:55	40.1	40.1	40.1	84	35.7	0	0	---	0.00	30.087 
06:00	40.1	40.1	40.1	84	35.7	0	0	---	0.00	30.091 
06:05	40.1	40.1	40.1	84	35.7	0	0	---	0.00	30.091 
06:10	39.9	39.9	39.9	84	35.5	0	0	---	0.00	30.091 
06:15	39.9	39.9	39.9	83	35.2	0	0	---	0.00	30.098 
06:20	39.9	39.9	39.9	83	35.2	0	0	---	0.00	30.098 
06:25	39.8	39.8	39.8	83	35.1	0	0	---	0.00	30.098 
06:30	39.6	39.6	39.6	83	34.9	0	0	---	0.00	30.104 
06:35	39.6	39.6	39.6	82	34.6	0	0	---	0.00	30.104 
06:40	39.5	39.5	39.5	82	34.5	0	0	---	0.00	30.104 
06:45	39.3	39.3	39.3	82	34.3	0	0	---	0.00	30.105 
06:50	39.2	39.2	39.2	82	34.2	0	0	---	0.00	30.105 
06:55	39.1	39.1	39.1	82	34.1	0	0	---	0.00	30.105 
07:00	38.9	38.9	38.9	82	33.9	0	0	---	0.00	30.106 
07:05	38.9	38.9	38.9	82	33.9	0	0	---	0.00	30.106 
07:10	38.8	38.8	38.8	82	33.8	0	0	---	0.00	30.106 
07:15	38.6	38.6	38.6	82	33.6	0	0	---	0.00	30.108 
07:20	38.8	38.8	38.8	83	34.1	0	1	292	0.00	30.108 
07:25	38.8	38.8	38.8	83	34.1	0	0	---	0.00	30.108 
07:30	38.8	38.8	38.8	83	34.1	0	0	---	0.00	30.117 
07:35	38.8	38.8	38.8	83	34.1	0	0	---	0.00	30.117 
07:40	38.8	38.8	38.8	83	34.1	0	0	---	0.00	30.117 
07:45	38.6	38.6	38.6	83	33.9	0	0	---	0.00	30.119 
07:50	38.5	38.5	38.5	83	33.8	0	0	---	0.00	30.119 
07:55	38.5	38.5	38.5	83	33.8	0	0	---	0.00	30.119 
08:00	38.5	38.5	38.5	83	33.8	0	0	---	0.00	30.119 
08:05	38.3	38.3	38.3	84	33.9	0	0	---	0.00	30.119 
08:10	38.3	38.3	38.3	84	33.9	0	0	---	0.00	30.119 
08:15	38.5	38.5	38.5	84	34.1	0	0	---	0.00	30.127 
08:20	38.6	38.6	38.6	84	34.2	0	0	---	0.00	30.127 
08:25	38.9	38.9	38.9	84	34.5	0	0	---	0.00	30.127 
08:30	39.3	39.3	39.3	84	34.9	0	0	---	0.00	30.129 
08:35	40.1	40.1	40.1	84	35.7	0	0	---	0.00	30.129 
08:40	40.9	40.9	40.9	83	36.1	0	0	---	0.00	30.129 
08:45	41.8	41.8	41.8	81	36.4	0	0	---	0.00	30.127 
08:50	42.6	42.6	42.6	81	37.2	0	0	---	0.00	30.127 
08:55	43.5	43.5	43.5	79	37.4	0	1	292	0.00	30.127 
09:00	44.5	44.5	44.5	77	37.7	0	0	---	0.00	30.129 
09:05	45.4	45.4	45.4	76	38.3	0	1	292	0.00	30.129 
09:10	46.0	46.0	46.0	74	38.2	0	1	292	0.00	30.129 
09:15	46.5	46.5	46.5	74	38.7	0	1	292	0.00	30.133 
09:20	47.3	47.3	47.3	73	39.1	0	1	292	0.00	30.133 
09:25	48.2	48.2	48.2	73	40.0	0	2	292	0.00	30.133 
09:30	48.9	48.9	48.9	72	40.3	0	2	292	0.00	30.132 
09:35	49.5	49.5	49.5	72	40.9	0	2	292	0.00	30.132 
09:40	50.1	50.1	50.1	72	41.4	0	1	292	0.00	30.132 
09:45	50.7	50.7	50.7	71	41.6	0	2	292	0.00	30.131 
09:50	51.4	51.4	51.4	71	42.3	0	1	292	0.00	30.131 
09:55	52.2	52.2	52.2	72	43.4	0	0	---	0.00	30.131 
10:00	52.9	52.9	52.9	72	44.1	0	1	292	0.00	30.130 
10:05	53.6	53.6	53.6	72	44.8	0	1	292	0.00	30.130 
10:10	54.5	54.5	54.5	70	44.9	0	1	292	0.00	30.130 
10:15	55.6	55.6	55.6	70	46.0	0	1	292	0.00	30.129 
10:20	56.5	56.5	56.5	69	46.5	0	1	292	0.00	30.129 
10:25	57.5	57.5	57.5	69	47.4	0	2	292	0.00	30.129 
10:30	58.6	58.6	58.6	69	48.5	0	1	292	0.00	30.125 
10:35	59.6	59.6	59.6	68	49.0	1	3	292	0.00	30.125 
10:40	60.5	60.5	60.5	68	49.9	0	2	270	0.00	30.125 
10:45	61.5	61.5	61.5	66	50.0	1	3	270	0.00	30.119 
10:50	62.4	62.4	62.4	67	51.3	0	3	248	0.00	30.119 
10:55	63.4	63.4	63.4	67	52.2	0	2	248	0.00	30.119 
11:00	64.0	64.0	64.0	67	52.8	2	9	248	0.00	30.109 
11:05	64.7	64.7	64.7	68	53.9	1	3	248	0.00	30.109 
11:10	65.2	65.2	65.2	66	53.5	1	3	248	0.00	30.109 
11:15	65.6	65.6	65.6	66	53.9	1	6	248	0.00	30.108 
11:20	66.0	66.0	66.0	65	53.9	2	5	248	0.00	30.108 
11:25	66.3	66.3	66.3	66	54.6	2	6	248	0.00	30.108 
11:30	66.9	66.9	66.9	66	55.2	1	4	248	0.00	30.106 
11:35	67.8	67.8	67.8	65	55.6	2	5	225	0.00	30.106 
11:40	68.4	68.4	68.4	64	55.7	1	4	248	0.00	30.106 
11:45	68.9	68.9	68.9	62	55.3	3	7	248	0.00	30.098 
11:50	69.1	69.1	69.1	61	55.1	3	10	248	0.00	30.098 
11:55	69.6	69.6	69.6	62	56.0	1	3	248	0.00	30.098 
12:00	70.1	70.1	70.1	59	55.1	2	9	248	0.00	30.093 
12:05	70.3	70.3	70.3	58	54.8	3	7	248	0.00	30.093 
12:10	70.6	70.6	70.6	58	55.1	1	4	248	0.00	30.093 
12:15	71.1	71.1	71.1	58	55.6	2	5	248	0.00	30.090 
12:20	71.6	71.6	71.6	57	55.5	1	4	248	0.00	30.090 
12:25	72.1	72.1	72.1	56	55.5	2	4	248	0.00	30.090 
12:30	72.3	72.3	72.3	56	55.7	1	4	248	0.00	30.086 
12:35	72.5	72.5	72.5	55	55.4	2	6	248	0.00	30.086 
12:40	72.7	72.7	72.7	57	56.6	1	5	248	0.00	30.086 
12:45	73.0	73.0	73.0	55	55.9	2	6	248	0.00	30.083 
12:50	73.3	73.3	73.3	54	55.6	2	6	248	0.00	30.083 
12:55	73.7	73.7	73.7	55	56.5	1	4	248	0.00	30.083 
13:00	74.0	74.0	74.0	53	55.8	2	6	248	0.00	30.074 
13:05	74.4	74.4	74.4	51	55.1	2	5	225	0.00	30.074 
13:10	74.4	74.4	74.4	51	55.1	2	6	248	0.00	30.074 
13:15	74.6	74.6	74.6	54	56.8	2	5	248	0.00	30.071 
13:20	75.1	75.1	77.7	51	55.7	1	4	270	0.00	30.071 
13:25	75.1	75.1	77.7	49	54.6	2	5	248	0.00	30.071 
13:30	75.4	75.4	77.8	52	56.5	1	3	248	0.00	30.070 
13:35	75.8	75.8	78.0	50	55.8	1	4	248	0.00	30.070 
13:40	76.0	76.0	78.0	47	54.3	2	6	248	0.00	30.070 
13:45	76.1	76.1	78.1	47	54.4	2	5	225	0.00	30.069 
13:50	76.1	76.1	78.1	48	55.0	2	6	248	0.00	30.069 
13:55	76.1	76.1	78.0	46	53.8	2	5	248	0.00	30.069 
14:00	76.1	76.1	78.1	48	55.0	3	7	248	0.00	30.068 
14:05	76.3	76.3	78.2	47	54.6	2	5	225	0.00	30.068 
14:10	76.7	76.7	78.4	48	55.5	2	6	248	0.00	30.068 
14:15	76.8	76.8	78.4	47	55.0	2	4	248	0.00	30.065 
14:20	76.8	76.8	78.4	46	54.4	2	5	248	0.00	30.065 
14:25	77.0	77.0	78.5	46	54.6	3	7	248	0.00	30.065 
14:30	77.2	77.2	78.6	46	54.8	2	7	248	0.00	30.058 
14:35	77.2	77.2	78.5	45	54.2	3	10	248	0.00	30.058 
14:40	77.2	77.2	78.6	46	54.8	2	6	248	0.00	30.058 
14:45	77.2	77.2	78.6	46	54.8	2	6	248	0.00	30.052 
14:50	77.4	77.4	78.6	44	53.8	2	6	248	0.00	30.052 
14:55	77.6	77.6	78.7	44	53.9	2	5	270	0.00	30.052 
15:00	77.7	77.7	78.8	45	54.6	3	6	248	0.00	30.046 
15:05	77.7	77.7	78.8	45	54.6	2	4	270	0.00	30.046 
15:10	77.7	77.7	78.9	46	55.2	2	6	90	0.00	30.046 
15:15	77.6	77.6	78.8	45	54.6	1	4	90	0.00	30.037 
15:20	77.4	77.4	78.6	45	54.4	2	7	90	0.00	30.037 
15:25	77.0	77.0	78.4	44	53.4	2	5	90	0.00	30.037 
15:30	77.0	77.0	78.5	46	54.6	2	5	270	0.00	30.038 
15:35	77.4	77.4	78.6	43	53.1	2	6	248	0.00	30.038 
15:40	77.6	77.6	78.8	45	54.6	2	4	248	0.00	30.038 
15:45	77.9	77.9	78.8	43	53.6	2	5	248	0.00	30.033 
15:50	78.3	78.3	79.0	42	53.3	2	8	248	0.00	30.033 
15:55	78.3	78.3	78.9	41	52.6	2	6	270	0.00	30.033 
16:00	78.3	78.3	78.9	41	52.6	2	6	248	0.00	30.032 
16:05	78.1	78.1	78.8	41	52.5	2	6	248	0.00	30.032 
16:10	78.1	78.1	78.8	40	51.8	2	5	248	0.00	30.032 
16:15	78.1	78.1	78.7	39	51.1	2	6	270	0.00	30.028 
16:20	78.3	78.3	78.7	37	49.9	2	6	248	0.00	30.028 
16:25	78.5	78.5	79.0	40	52.1	2	4	248	0.00	30.028 
16:30	78.3	78.3	78.9	41	52.6	2	6	225	0.00	30.022 
16:35	77.9	77.9	78.6	39	50.9	2	12	45	0.00	30.022 
16:40	77.9	77.9	78.6	39	50.9	2	5	248	0.00	30.022 
16:45	78.1	78.1	78.8	40	51.8	1	4	270	0.00	30.022 
16:50	78.1	78.1	78.8	40	51.8	1	5	248	0.00	30.022 
16:55	77.9	77.9	78.6	39	50.9	1	6	248	0.00	30.022 
17:00	77.9	77.9	78.5	37	49.5	3	10	248	0.00	30.019 
17:05	77.9	77.9	78.7	40	51.6	1	5	248	0.00	30.019 
17:10	77.7	77.7	78.5	39	50.7	2	6	112	0.00	30.019 
17:15	77.7	77.7	78.6	41	52.1	1	3	248	0.00	30.019 
17:20	77.7	77.7	78.6	41	52.1	1	5	248	0.00	30.019 
17:25	77.6	77.6	78.6	41	52.0	2	7	90	0.00	30.019 
17:30	77.4	77.4	78.6	43	53.1	1	4	248	0.00	30.019 
17:35	77.2	77.2	78.4	42	52.3	1	5	270	0.00	30.019 
17:40	77.2	77.2	78.4	42	52.3	2	5	225	0.00	30.019 
17:45	77.0	77.0	78.3	41	51.5	1	5	292	0.00	30.018 
17:50	77.0	77.0	78.2	40	50.8	1	5	90	0.00	30.018 
17:55	76.8	76.8	78.2	41	51.3	1	5	248	0.00	30.018 
18:00	76.8	76.8	78.3	43	52.6	2	9	248	0.00	30.021 
18:05	76.8	76.8	78.3	43	52.6	1	5	248	0.00	30.021 
18:10	76.7	76.7	78.3	45	53.7	2	6	90	0.00	30.021 
18:15	76.5	76.5	78.2	46	54.2	1	5	90	0.00	30.020 
18:20	76.3	76.3	78.1	46	54.0	2	4	90	0.00	30.020 
18:25	76.1	76.1	78.0	46	53.8	1	4	45	0.00	30.020 
18:30	76.1	76.1	78.0	45	53.2	1	5	68	0.00	30.020 
18:35	76.0	76.0	78.0	45	53.1	1	6	90	0.00	30.020 
18:40	76.0	76.0	78.0	46	53.7	1	5	270	0.00	30.020 
18:45	75.8	75.8	77.9	46	53.5	1	9	68	0.00	30.021 
18:50	75.4	75.4	77.8	47	53.7	0	3	248	0.00	30.021 
18:55	75.3	75.3	77.7	47	53.7	1	3	248	0.00	30.021 
19:00	74.9	74.9	74.9	47	53.3	1	2	45	0.00	30.020 
19:05	74.7	74.7	74.7	47	53.1	1	3	0	0.00	30.020 
19:10	74.6	74.6	74.6	47	53.0	1	7	90	0.00	30.020 
19:15	74.4	74.4	74.4	46	52.3	1	4	68	0.00	30.023 
19:20	74.2	74.2	74.2	47	52.7	0	2	68	0.00	30.023 
19:25	73.9	73.9	73.9	48	53.0	0	1	68	0.00	30.023 
19:30	73.3	73.3	73.3	48	52.4	0	1	68	0.00	30.023 
19:35	73.0	73.0	73.0	49	52.7	0	3	68	0.00	30.023 
19:40	72.7	72.7	72.7	49	52.4	0	1	68	0.00	30.023 
19:45	72.3	72.3	72.3	50	52.6	0	1	68	0.00	30.026 
19:50	71.8	71.8	71.8	50	52.1	0	1	68	0.00	30.026 
19:55	71.3	71.3	71.3	50	51.7	0	0	---	0.00	30.026 
20:00	70.9	70.9	70.9	51	51.9	0	1	68	0.00	30.028 
20:05	70.6	70.6	70.6	51	51.6	0	1	68	0.00	30.028 
20:10	70.4	70.4	70.4	51	51.4	0	1	68	0.00	30.028 
20:15	70.4	70.4	70.4	51	51.4	0	1	90	0.00	30.025 
20:20	70.3	70.3	70.3	51	51.3	0	2	90	0.00	30.025 
20:25	70.1	70.1	70.1	52	51.6	0	1	90	0.00	30.025 
20:30	69.8	69.8	69.8	53	51.9	0	1	90	0.00	30.026 
20:35	69.4	69.4	69.4	54	52.0	0	1	90	0.00	30.026 
20:40	69.1	69.1	69.1	55	52.2	0	2	90	0.00	30.026 
20:45	68.9	68.9	68.9	56	52.5	0	1	90	0.00	30.031 
20:50	68.8	68.8	68.8	58	53.4	0	2	90	0.00	30.031 
20:55	68.6	68.6	68.6	58	53.2	0	2	90	0.00	30.031 
21:00	68.4	68.4	68.4	59	53.5	0	1	90	0.00	30.032 
21:05	68.4	68.4	68.4	60	54.0	0	2	90	0.00	30.032 
21:10	68.1	68.1	68.1	60	53.7	0	1	90	0.00	30.032 
21:15	67.9	67.9	67.9	61	53.9	0	2	90	0.00	30.029 
21:20	67.8	67.8	67.8	61	53.9	0	4	90	0.00	30.029 
21:25	67.6	67.6	67.6	61	53.7	0	1	90	0.00	30.029 
21:30	67.6	67.6	67.6	61	53.7	0	2	90	0.00	30.032 
21:35	67.4	67.4	67.4	61	53.5	0	1	90	0.00	30.032 
21:40	67.3	67.3	67.3	61	53.4	0	2	90	0.00	30.032 
21:45	67.3	67.3	67.3	61	53.4	0	1	90	0.00	30.034 
21:50	67.1	67.1	67.1	61	53.2	0	2	90	0.00	30.034 
21:55	67.1	67.1	67.1	61	53.2	0	2	90	0.00	30.034 
22:00	66.9	66.9	66.9	62	53.4	0	1	90	0.00	30.035 
22:05	66.8	66.8	66.8	62	53.4	0	2	90	0.00	30.035 
22:10	66.6	66.6	66.6	62	53.2	0	1	90	0.00	30.035 
22:15	66.4	66.4	66.4	62	53.0	0	1	90	0.00	30.027 
22:20	66.4	66.4	66.4	62	53.0	0	3	90	0.00	30.027 
22:25	66.3	66.3	66.3	62	52.9	0	2	90	0.00	30.027 
22:30	66.1	66.1	66.1	62	52.7	0	3	90	0.00	30.028 
22:35	66.1	66.1	66.1	62	52.7	0	1	90	0.00	30.028 
22:40	66.1	66.1	66.1	62	52.7	0	1	90	0.00	30.028 
22:45	66.3	66.3	66.3	62	52.9	0	1	90	0.00	30.032 
22:50	66.4	66.4	66.4	62	53.0	0	1	90	0.00	30.032 
22:55	66.6	66.6	66.6	61	52.7	0	2	270	0.00	30.032 
23:00	66.8	66.8	66.8	61	52.9	0	3	202	0.00	30.030 
23:05	67.1	67.1	67.1	60	52.7	0	3	292	0.00	30.030 
23:10	67.3	67.3	67.3	60	52.9	0	2	270	0.00	30.030 
23:15	67.3	67.3	67.3	60	52.9	0	1	270	0.00	30.032 
23:20	67.3	67.3	67.3	60	52.9	0	3	248	0.00	30.032 
23:25	67.3	67.3	67.3	60	52.9	0	1	248	0.00	30.032 
23:30	67.3	67.3	67.3	60	52.9	0	2	248	0.00	30.033 
23:35	67.1	67.1	67.1	60	52.7	0	2	248	0.00	30.033 
23:40	66.8	66.8	66.8	61	52.9	0	0	---	0.00	30.033 
23:45	66.4	66.4	66.4	61	52.5	0	1	248	0.00	30.031 
23:50	66.1	66.1	66.1	62	52.7	0	1	248	0.00	30.031 
23:55	65.8	65.8	65.8	63	52.8	0	2	135	0.00	30.031 

CoCoRaHS
IN-AL-39
A2 Web Hosting
Creative Commons License
GoDaddy
search engine by freefind advanced

loaded 2018-11-15 18:24:11 • last modified 2010-11-18 10:43:29
Privacy PolicyDisclaimer
• wx.awcolley.com is powered by PmWiki v.2002016 •
• all content (unless otherwise noted) © 2018 A W Colley